createdAt,value
2016-09-12T00:00:36.246Z,958.34
2016-09-12T00:01:36.239Z,958.39
2016-09-12T00:02:36.243Z,958.35
2016-09-12T00:03:36.235Z,958.37
2016-09-12T00:04:36.229Z,958.34
2016-09-12T00:05:36.259Z,958.34
2016-09-12T00:06:36.241Z,958.33
2016-09-12T00:07:36.221Z,958.36
2016-09-12T00:08:36.213Z,958.35
2016-09-12T00:09:36.211Z,958.35
2016-09-12T00:10:36.213Z,958.38
2016-09-12T00:11:36.208Z,958.38
2016-09-12T00:12:36.199Z,958.37
2016-09-12T00:13:36.201Z,958.35
2016-09-12T00:14:36.240Z,958.38
2016-09-12T00:15:36.198Z,958.39
2016-09-12T00:16:36.239Z,958.39
2016-09-12T00:17:36.186Z,958.37
2016-09-12T00:18:36.179Z,958.37
2016-09-12T00:19:36.177Z,958.36
2016-09-12T00:20:36.170Z,958.37
2016-09-12T00:21:36.169Z,958.35
2016-09-12T00:22:36.174Z,958.38
2016-09-12T00:23:36.164Z,958.34
2016-09-12T00:24:36.162Z,958.35
2016-09-12T00:25:36.185Z,958.32
2016-09-12T00:26:36.152Z,958.36
2016-09-12T00:27:36.147Z,958.4
2016-09-12T00:28:36.146Z,958.36
2016-09-12T00:29:36.151Z,958.39
2016-09-12T00:30:36.141Z,958.36
2016-09-12T00:31:36.144Z,958.36
2016-09-12T00:32:36.127Z,958.34
2016-09-12T00:33:36.133Z,958.36
2016-09-12T00:34:36.129Z,958.35
2016-09-12T00:35:36.120Z,958.33
2016-09-12T00:36:36.114Z,958.34
2016-09-12T00:37:36.110Z,958.32
2016-09-12T00:38:36.110Z,958.34
2016-09-12T00:39:36.112Z,958.33
2016-09-12T00:40:36.098Z,958.35
2016-09-12T00:41:36.100Z,958.34
2016-09-12T00:42:36.102Z,958.32
2016-09-12T00:43:36.125Z,958.3
2016-09-12T00:44:36.085Z,958.32
2016-09-12T00:45:36.087Z,958.31
2016-09-12T00:46:36.078Z,958.34
2016-09-12T00:47:36.106Z,958.32
2016-09-12T00:48:36.104Z,958.34
2016-09-12T00:49:36.071Z,958.36
2016-09-12T00:50:36.064Z,958.37
2016-09-12T00:51:36.176Z,958.34
2016-09-12T00:52:36.058Z,958.33
2016-09-12T00:53:36.051Z,958.34
2016-09-12T00:54:36.047Z,958.32
2016-09-12T00:55:36.043Z,958.31
2016-09-12T00:56:36.043Z,958.31
2016-09-12T00:57:36.046Z,958.31
2016-09-12T00:58:36.038Z,958.26
2016-09-12T00:59:36.269Z,958.27
2016-09-12T01:00:36.030Z,958.3
2016-09-12T01:01:36.022Z,958.26
2016-09-12T01:02:36.022Z,958.3
2016-09-12T01:03:36.062Z,958.27
2016-09-12T01:04:36.011Z,958.27
2016-09-12T01:05:36.015Z,958.23
2016-09-12T01:06:36.010Z,958.2
2016-09-12T01:07:36.008Z,958.24
2016-09-12T01:08:35.996Z,958.24
2016-09-12T01:09:35.995Z,958.2
2016-09-12T01:10:35.988Z,958.22
2016-09-12T01:11:35.988Z,958.23
2016-09-12T01:12:35.995Z,958.21
2016-09-12T01:13:35.977Z,958.18
2016-09-12T01:14:35.974Z,958.16
2016-09-12T01:15:35.969Z,958.15
2016-09-12T01:16:35.973Z,958.16
2016-09-12T01:17:35.974Z,958.18
2016-09-12T01:18:35.964Z,958.18
2016-09-12T01:19:35.954Z,958.19
2016-09-12T01:20:35.959Z,958.19
2016-09-12T01:21:35.953Z,958.19
2016-09-12T01:22:35.949Z,958.23
2016-09-12T01:23:35.942Z,958.21
2016-09-12T01:24:35.947Z,958.25
2016-09-12T01:25:35.941Z,958.24
2016-09-12T01:26:35.928Z,958.23
2016-09-12T01:27:35.937Z,958.29
2016-09-12T01:28:35.925Z,958.26
2016-09-12T01:29:35.916Z,958.29
2016-09-12T01:30:35.912Z,958.31
2016-09-12T01:31:35.920Z,958.3
2016-09-12T01:32:35.942Z,958.28
2016-09-12T01:33:35.902Z,958.3
2016-09-12T01:34:35.898Z,958.29
2016-09-12T01:35:35.893Z,958.28
2016-09-12T01:36:35.895Z,958.28
2016-09-12T01:37:35.886Z,958.25
2016-09-12T01:38:35.886Z,958.25
2016-09-12T01:39:35.880Z,958.22
2016-09-12T01:40:35.877Z,958.25
2016-09-12T01:41:35.958Z,958.24
2016-09-12T01:42:35.868Z,958.22
2016-09-12T01:43:35.862Z,958.24
2016-09-12T01:44:35.868Z,958.23
2016-09-12T01:45:35.863Z,958.21
2016-09-12T01:46:35.856Z,958.25
2016-09-12T01:47:35.850Z,958.22
2016-09-12T01:48:35.850Z,958.25
2016-09-12T01:49:35.844Z,958.23
2016-09-12T01:50:35.842Z,958.24
2016-09-12T01:51:35.833Z,958.21
2016-09-12T01:52:35.974Z,958.25
2016-09-12T01:53:35.825Z,958.21
2016-09-12T01:54:35.824Z,958.21
2016-09-12T01:55:35.819Z,958.19
2016-09-12T01:56:35.814Z,958.16
2016-09-12T01:57:35.816Z,958.19
2016-09-12T01:58:35.819Z,958.17
2016-09-12T01:59:35.805Z,958.16
2016-09-12T02:00:35.807Z,958.19
2016-09-12T02:01:35.806Z,958.15
2016-09-12T02:02:35.803Z,958.15
2016-09-12T02:03:35.786Z,958.18
2016-09-12T02:04:35.784Z,958.17
2016-09-12T02:05:35.784Z,958.2
2016-09-12T02:06:35.781Z,958.16
2016-09-12T02:07:35.770Z,958.15
2016-09-12T02:08:35.769Z,958.18
2016-09-12T02:09:35.763Z,958.18
2016-09-12T02:10:35.763Z,958.16
2016-09-12T02:11:35.753Z,958.16
2016-09-12T02:12:35.755Z,958.15
2016-09-12T02:13:35.757Z,958.18
2016-09-12T02:14:35.746Z,958.2
2016-09-12T02:15:35.749Z,958.17
2016-09-12T02:16:35.744Z,958.17
2016-09-12T02:17:35.740Z,958.21
2016-09-12T02:18:35.738Z,958.16
2016-09-12T02:19:35.750Z,958.16
2016-09-12T02:20:35.721Z,958.16
2016-09-12T02:21:35.723Z,958.11
2016-09-12T02:22:35.713Z,958.19
2016-09-12T02:23:35.709Z,958.16
2016-09-12T02:24:35.704Z,958.16
2016-09-12T02:25:35.700Z,958.17
2016-09-12T02:26:35.719Z,958.14
2016-09-12T02:27:35.703Z,958.15
2016-09-12T02:28:35.689Z,958.17
2016-09-12T02:29:35.685Z,958.16
2016-09-12T02:30:35.681Z,958.14
2016-09-12T02:31:35.684Z,958.17
2016-09-12T02:32:35.671Z,958.15
2016-09-12T02:33:35.737Z,958.16
2016-09-12T02:34:35.666Z,958.11
2016-09-12T02:35:35.660Z,958.12
2016-09-12T02:36:35.660Z,958.13
2016-09-12T02:37:35.660Z,958.13
2016-09-12T02:38:35.658Z,958.15
2016-09-12T02:39:35.649Z,958.11
2016-09-12T02:40:35.648Z,958.14
2016-09-12T02:41:35.643Z,958.1
2016-09-12T02:42:35.633Z,958.14
2016-09-12T02:43:35.656Z,958.11
2016-09-12T02:44:35.627Z,958.15
2016-09-12T02:45:35.631Z,958.13
2016-09-12T02:46:35.624Z,958.14
2016-09-12T02:47:35.617Z,958.13
2016-09-12T02:48:35.612Z,958.13
2016-09-12T02:49:35.610Z,958.12
2016-09-12T02:50:35.602Z,958.1
2016-09-12T02:51:35.607Z,958.08
2016-09-12T02:52:35.599Z,958.12
2016-09-12T02:53:35.592Z,958.09
2016-09-12T02:54:35.589Z,958.08
2016-09-12T02:55:35.589Z,958.07
2016-09-12T02:56:35.579Z,958.09
2016-09-12T02:57:35.573Z,958.03
2016-09-12T02:58:35.575Z,958.05
2016-09-12T02:59:35.566Z,958.04
2016-09-12T03:00:35.561Z,958.04
2016-09-12T03:01:35.560Z,957.99
2016-09-12T03:02:35.556Z,958.04
2016-09-12T03:03:35.549Z,958.05
2016-09-12T03:04:35.546Z,958.02
2016-09-12T03:05:35.542Z,958.04
2016-09-12T03:06:35.536Z,958.02
2016-09-12T03:07:35.538Z,958.04
2016-09-12T03:08:35.537Z,958.05
2016-09-12T03:09:35.525Z,958.05
2016-09-12T03:10:35.525Z,958.05
2016-09-12T03:11:35.526Z,958.04
2016-09-12T03:12:35.514Z,958.07
2016-09-12T03:13:35.515Z,958.05
2016-09-12T03:14:35.518Z,958.05
2016-09-12T03:15:35.501Z,958.06
2016-09-12T03:16:35.509Z,958.03
2016-09-12T03:17:35.492Z,958.04
2016-09-12T03:18:35.494Z,958.03
2016-09-12T03:19:35.562Z,958.03
2016-09-12T03:20:35.482Z,958.02
2016-09-12T03:21:35.479Z,958.03
2016-09-12T03:22:35.472Z,958
2016-09-12T03:23:35.471Z,958
2016-09-12T03:24:35.472Z,957.99
2016-09-12T03:25:35.737Z,958.01
2016-09-12T03:26:35.466Z,958.02
2016-09-12T03:27:35.456Z,958.01
2016-09-12T03:28:35.452Z,957.94
2016-09-12T03:29:35.446Z,957.97
2016-09-12T03:30:35.447Z,957.98
2016-09-12T03:31:35.459Z,957.97
2016-09-12T03:32:35.432Z,957.94
2016-09-12T03:33:35.431Z,957.94
2016-09-12T03:34:35.442Z,957.92
2016-09-12T03:35:35.423Z,957.9
2016-09-12T03:36:35.418Z,957.94
2016-09-12T03:37:35.419Z,957.96
2016-09-12T03:38:35.470Z,957.94
2016-09-12T03:39:35.426Z,957.94
2016-09-12T03:40:35.399Z,957.94
2016-09-12T03:41:35.402Z,957.93
2016-09-12T03:42:35.394Z,957.92
2016-09-12T03:43:35.410Z,957.91
2016-09-12T03:44:35.386Z,957.93
2016-09-12T03:45:35.382Z,957.95
2016-09-12T03:46:35.380Z,957.9
2016-09-12T03:47:35.372Z,957.9
2016-09-12T03:48:35.371Z,957.93
2016-09-12T03:49:35.363Z,957.9
2016-09-12T03:50:35.365Z,957.93
2016-09-12T03:51:35.357Z,957.96
2016-09-12T03:52:35.354Z,957.93
2016-09-12T03:53:35.349Z,957.93
2016-09-12T03:54:35.342Z,957.93
2016-09-12T03:55:35.342Z,957.92
2016-09-12T03:56:35.339Z,957.89
2016-09-12T03:57:35.348Z,957.9
2016-09-12T03:58:35.327Z,957.91
2016-09-12T03:59:35.328Z,957.91
2016-09-12T04:00:35.324Z,957.93
2016-09-12T04:01:35.319Z,957.94
2016-09-12T04:02:35.314Z,957.92
2016-09-12T04:03:35.316Z,957.89
2016-09-12T04:04:35.305Z,957.89
2016-09-12T04:05:35.305Z,957.9
2016-09-12T04:06:35.297Z,957.9
2016-09-12T04:07:35.298Z,957.86
2016-09-12T04:08:35.286Z,957.91
2016-09-12T04:09:35.294Z,957.87
2016-09-12T04:10:35.283Z,957.9
2016-09-12T04:11:35.298Z,957.87
2016-09-12T04:12:35.271Z,957.9
2016-09-12T04:13:35.270Z,957.93
2016-09-12T04:14:35.265Z,957.9
2016-09-12T04:15:35.257Z,957.92
2016-09-12T04:16:35.255Z,957.99
2016-09-12T04:17:35.249Z,957.94
2016-09-12T04:18:35.247Z,957.93
2016-09-12T04:19:35.247Z,958
2016-09-12T04:20:35.236Z,957.97
2016-09-12T04:21:35.232Z,957.99
2016-09-12T04:22:35.254Z,958
2016-09-12T04:23:35.225Z,958.03
2016-09-12T04:24:35.222Z,958.06
2016-09-12T04:25:35.224Z,958.06
2016-09-12T04:26:35.212Z,958.03
2016-09-12T04:27:35.207Z,958.03
2016-09-12T04:28:35.217Z,958.04
2016-09-12T04:29:35.206Z,958.02
2016-09-12T04:30:35.195Z,958.01
2016-09-12T04:31:35.192Z,958.05
2016-09-12T04:32:35.198Z,958.05
2016-09-12T04:33:35.189Z,958.03
2016-09-12T04:34:35.177Z,958.02
2016-09-12T04:35:35.188Z,958.03
2016-09-12T04:36:35.177Z,958.01
2016-09-12T04:37:35.171Z,958.02
2016-09-12T04:38:35.182Z,958.05
2016-09-12T04:39:35.166Z,958.07
2016-09-12T04:40:35.159Z,958.09
2016-09-12T04:41:35.149Z,958.11
2016-09-12T04:42:35.145Z,958.06
2016-09-12T04:43:35.152Z,958.08
2016-09-12T04:44:35.144Z,958.09
2016-09-12T04:45:35.138Z,958.1
2016-09-12T04:46:35.132Z,958.11
2016-09-12T04:47:35.122Z,958.09
2016-09-12T04:48:35.120Z,958.07
2016-09-12T04:49:35.315Z,958.1
2016-09-12T04:50:35.107Z,958.12
2016-09-12T04:51:35.105Z,958.12
2016-09-12T04:52:35.101Z,958.13
2016-09-12T04:53:35.100Z,958.12
2016-09-12T04:54:35.164Z,958.13
2016-09-12T04:55:35.087Z,958.15
2016-09-12T04:56:35.137Z,958.14
2016-09-12T04:57:35.090Z,958.12
2016-09-12T04:58:35.078Z,958.14
2016-09-12T04:59:35.069Z,958.13
2016-09-12T05:00:35.078Z,958.14
2016-09-12T05:01:35.136Z,958.13
2016-09-12T05:02:35.077Z,958.16
2016-09-12T05:03:35.136Z,958.19
2016-09-12T05:04:35.054Z,958.18
2016-09-12T05:05:35.047Z,958.16
2016-09-12T05:06:35.061Z,958.16
2016-09-12T05:07:35.035Z,958.15
2016-09-12T05:08:35.042Z,958.17
2016-09-12T05:09:35.026Z,958.21
2016-09-12T05:10:35.026Z,958.19
2016-09-12T05:11:35.020Z,958.19
2016-09-12T05:12:35.019Z,958.17
2016-09-12T05:13:35.019Z,958.15
2016-09-12T05:14:35.075Z,958.19
2016-09-12T05:15:35.003Z,958.17
2016-09-12T05:16:35.000Z,958.19
2016-09-12T05:17:35.001Z,958.2
2016-09-12T05:18:35.008Z,958.19
2016-09-12T05:19:34.983Z,958.21
2016-09-12T05:20:34.991Z,958.21
2016-09-12T05:21:34.974Z,958.2
2016-09-12T05:22:34.977Z,958.19
2016-09-12T05:23:34.967Z,958.19
2016-09-12T05:24:34.964Z,958.17
2016-09-12T05:25:35.091Z,958.2
2016-09-12T05:26:34.964Z,958.19
2016-09-12T05:27:34.952Z,958.16
2016-09-12T05:28:34.946Z,958.13
2016-09-12T05:29:34.939Z,958.14
2016-09-12T05:30:34.938Z,958.14
2016-09-12T05:31:34.935Z,958.16
2016-09-12T05:32:34.937Z,958.17
2016-09-12T05:33:34.923Z,958.19
2016-09-12T05:34:34.953Z,958.17
2016-09-12T05:35:35.282Z,958.16
2016-09-12T05:36:34.910Z,958.19
2016-09-12T05:37:34.933Z,958.2
2016-09-12T05:38:34.903Z,958.16
2016-09-12T05:39:34.900Z,958.2
2016-09-12T05:40:34.901Z,958.2
2016-09-12T05:41:34.893Z,958.27
2016-09-12T05:42:34.895Z,958.22
2016-09-12T05:43:34.880Z,958.2
2016-09-12T05:44:34.879Z,958.2
2016-09-12T05:45:34.902Z,958.21
2016-09-12T05:46:34.869Z,958.23
2016-09-12T05:47:34.865Z,958.26
2016-09-12T05:48:34.869Z,958.27
2016-09-12T05:49:34.860Z,958.26
2016-09-12T05:50:34.866Z,958.2
2016-09-12T05:51:34.850Z,958.27
2016-09-12T05:52:34.843Z,958.26
2016-09-12T05:53:34.843Z,958.25
2016-09-12T05:54:35.096Z,958.22
2016-09-12T05:55:34.840Z,958.29
2016-09-12T05:56:34.831Z,958.27
2016-09-12T05:57:34.823Z,958.26
2016-09-12T05:58:34.833Z,958.27
2016-09-12T05:59:34.821Z,958.28
2016-09-12T06:00:34.818Z,958.27
2016-09-12T06:01:34.805Z,958.27
2016-09-12T06:02:34.803Z,958.27
2016-09-12T06:03:34.808Z,958.25
2016-09-12T06:04:34.795Z,958.27
2016-09-12T06:05:34.800Z,958.25
2016-09-12T06:06:34.790Z,958.26
2016-09-12T06:07:34.793Z,958.27
2016-09-12T06:08:34.789Z,958.23
2016-09-12T06:09:44.145Z,958.25
2016-09-12T06:10:34.778Z,958.27
2016-09-12T06:11:35.920Z,958.31
2016-09-12T06:12:35.264Z,958.3
2016-09-12T06:13:35.487Z,958.25
2016-09-12T06:14:34.763Z,958.24
2016-09-12T06:15:34.809Z,958.3
2016-09-12T06:16:34.749Z,958.27
2016-09-12T06:17:34.853Z,958.28
2016-09-12T06:18:34.744Z,958.24
2016-09-12T06:19:34.742Z,958.29
2016-09-12T06:20:40.998Z,958.27
2016-09-12T06:21:34.773Z,958.29
2016-09-12T06:23:17.833Z,958.27
2016-09-12T06:24:33.136Z,958.29
2016-09-12T06:25:33.137Z,958.29
2016-09-12T06:26:33.137Z,958.32
2016-09-12T06:27:33.129Z,958.3
2016-09-12T06:28:33.135Z,958.29
2016-09-12T06:29:33.127Z,958.28
2016-09-12T06:30:33.119Z,958.31
2016-09-12T06:31:33.119Z,958.27
2016-09-12T06:32:33.122Z,958.29
2016-09-12T06:33:33.109Z,958.29
2016-09-12T06:34:33.106Z,958.32
2016-09-12T06:35:33.101Z,958.32
2016-09-12T06:36:33.112Z,958.31
2016-09-12T06:37:33.098Z,958.29
2016-09-12T06:38:33.094Z,958.34
2016-09-12T06:39:33.096Z,958.33
2016-09-12T06:40:33.422Z,958.34
2016-09-12T06:42:06.330Z,958.35
2016-09-12T06:48:51.530Z,958.35
2016-09-12T06:58:54.819Z,958.41
2016-09-12T06:58:55.156Z,958.41
2016-09-12T13:18:36.673Z,957.49
2016-09-12T13:19:36.682Z,957.45
2016-09-12T13:20:36.684Z,957.48
2016-09-12T13:21:36.686Z,957.47
2016-09-12T13:22:36.694Z,957.47
2016-09-12T13:23:36.700Z,957.5
2016-09-12T13:24:36.705Z,957.51
2016-09-12T13:25:36.709Z,957.49
2016-09-12T13:26:36.715Z,957.49
2016-09-12T13:27:36.719Z,957.44
2016-09-12T13:28:36.724Z,957.45
2016-09-12T13:29:36.731Z,957.39
2016-09-12T13:30:36.733Z,957.45
2016-09-12T13:31:36.738Z,957.4
2016-09-12T13:32:36.750Z,957.43
2016-09-12T13:33:36.749Z,957.39
2016-09-12T13:34:36.755Z,957.36
2016-09-12T13:35:36.761Z,957.38
2016-09-12T13:36:36.763Z,957.37
2016-09-12T13:37:36.770Z,957.35
2016-09-12T13:38:36.775Z,957.36
2016-09-12T13:39:36.781Z,957.33
2016-09-12T13:40:36.785Z,957.35
2016-09-12T13:41:36.792Z,957.33
2016-09-12T13:42:36.800Z,957.34
2016-09-12T13:43:36.806Z,957.35
2016-09-12T13:44:36.807Z,957.32
2016-09-12T13:45:36.809Z,957.32
2016-09-12T13:46:36.817Z,957.3
2016-09-12T13:47:36.820Z,957.32
2016-09-12T13:48:36.828Z,957.29
2016-09-12T13:49:36.831Z,957.31
2016-09-12T13:50:36.836Z,957.33
2016-09-12T13:51:36.840Z,957.32
2016-09-12T13:52:36.848Z,957.35
2016-09-12T13:53:36.852Z,957.26
2016-09-12T13:54:36.860Z,957.29
2016-09-12T13:55:36.867Z,957.29
2016-09-12T13:56:36.880Z,957.27
2016-09-12T13:57:36.874Z,957.26
2016-09-12T13:58:36.880Z,957.26
2016-09-12T13:59:36.892Z,957.25
2016-09-12T14:00:36.887Z,957.25
2016-09-12T14:01:36.898Z,957.26
2016-09-12T14:02:36.899Z,957.26
2016-09-12T14:03:36.906Z,957.23
2016-09-12T14:04:36.913Z,957.26
2016-09-12T14:05:36.913Z,957.24
2016-09-12T14:06:36.917Z,957.23
2016-09-12T14:07:36.925Z,957.26
2016-09-12T14:08:36.929Z,957.22
2016-09-12T14:09:36.936Z,957.2
2016-09-12T14:10:36.951Z,957.2
2016-09-12T14:11:36.947Z,957.19
2016-09-12T14:12:36.952Z,957.2
2016-09-12T14:13:36.958Z,957.22
2016-09-12T14:14:36.966Z,957.21
2016-09-12T14:15:36.964Z,957.22
2016-09-12T14:16:36.979Z,957.19
2016-09-12T14:17:36.984Z,957.18
2016-09-12T14:18:37.130Z,957.2
2016-09-12T14:19:36.989Z,957.19
2016-09-12T14:20:36.988Z,957.18
2016-09-12T14:21:36.996Z,957.16
2016-09-12T14:22:37.000Z,957.14
2016-09-12T14:23:37.009Z,957.13
2016-09-12T14:24:37.013Z,957.15
2016-09-12T14:25:37.015Z,957.14
2016-09-12T14:26:37.020Z,957.11
2016-09-12T14:27:37.026Z,957.1
2016-09-12T14:28:37.083Z,957.12
2016-09-12T14:29:37.036Z,957.1
2016-09-12T14:30:37.056Z,957.12
2016-09-12T14:31:37.049Z,957.12
2016-09-12T14:32:37.055Z,957.11
2016-09-12T14:33:37.059Z,957.13
2016-09-12T14:34:37.093Z,957.07
2016-09-12T14:35:37.067Z,957.07
2016-09-12T14:36:37.087Z,957.06
2016-09-12T14:37:37.076Z,957.06
2016-09-12T14:38:37.082Z,957.08
2016-09-12T14:39:37.087Z,957.06
2016-09-12T14:40:37.094Z,957.09
2016-09-12T14:41:37.099Z,957.07
2016-09-12T14:42:37.103Z,957.1
2016-09-12T14:43:37.114Z,957.1
2016-09-12T14:44:37.116Z,957.06
2016-09-12T14:45:37.120Z,957.08
2016-09-12T14:46:37.133Z,957.08
2016-09-12T14:47:37.132Z,957.07
2016-09-12T14:49:37.145Z,957.09
2016-09-12T14:50:37.151Z,957.11
2016-09-12T14:51:37.148Z,957.08
2016-09-12T14:52:37.157Z,957.08
2016-09-12T14:53:37.159Z,957.08
2016-09-12T14:54:37.164Z,957.06
2016-09-12T14:55:37.168Z,957.07
2016-09-12T14:56:37.178Z,957.09
2016-09-12T14:57:37.178Z,957.13
2016-09-12T14:58:37.183Z,957.08
2016-09-12T14:59:37.190Z,957.1
2016-09-12T15:00:37.193Z,957.11
2016-09-12T15:01:37.199Z,957.1
2016-09-12T15:02:37.207Z,957.1
2016-09-12T15:03:37.211Z,957.12
2016-09-12T15:04:37.215Z,957.11
2016-09-12T15:05:37.221Z,957.1
2016-09-12T15:06:37.229Z,957.11
2016-09-12T15:07:37.229Z,957.12
2016-09-12T15:08:37.236Z,957.14
2016-09-12T15:09:37.241Z,957.11
2016-09-12T15:10:37.242Z,957.14
2016-09-12T15:11:37.246Z,957.15
2016-09-12T15:12:37.259Z,957.1
2016-09-12T15:13:37.257Z,957.13
2016-09-12T15:14:37.263Z,957.11
2016-09-12T15:15:37.269Z,957.08
2016-09-12T15:16:37.276Z,957.12
2016-09-12T15:17:37.276Z,957.13
2016-09-12T15:18:37.332Z,957.14
2016-09-12T15:19:37.285Z,957.11
2016-09-12T15:20:37.304Z,957.09
2016-09-12T15:21:37.295Z,957.08
2016-09-12T15:22:37.299Z,957.06
2016-09-12T15:23:37.305Z,957.07
2016-09-12T15:24:37.312Z,957.09
2016-09-12T15:25:37.315Z,957.09
2016-09-12T15:26:37.323Z,957.09
2016-09-12T15:27:37.327Z,957.07
2016-09-12T15:28:37.337Z,957.1
2016-09-12T15:29:37.336Z,957.08
2016-09-12T15:30:37.340Z,957.07
2016-09-12T15:31:37.351Z,957.11
2016-09-12T15:32:37.358Z,957.04
2016-09-12T15:33:37.356Z,957.07
2016-09-12T15:34:37.359Z,957.05
2016-09-12T15:35:37.367Z,957.07
2016-09-12T15:36:37.369Z,957.04
2016-09-12T15:37:37.373Z,957.04
2016-09-12T15:38:37.378Z,957.05
2016-09-12T15:39:37.389Z,957.03
2016-09-12T15:40:37.388Z,957.02
2016-09-12T15:41:37.391Z,957.04
2016-09-12T15:42:37.395Z,956.98
2016-09-12T15:43:37.410Z,956.99
2016-09-12T15:44:37.404Z,957.01
2016-09-12T15:45:37.408Z,957.01
2016-09-12T15:46:37.417Z,957.02
2016-09-12T15:47:37.420Z,957.01
2016-09-12T15:48:37.427Z,957.01
2016-09-12T15:49:37.428Z,957.08
2016-09-12T15:50:37.437Z,957.08
2016-09-12T15:51:37.438Z,957.07
2016-09-12T15:52:37.449Z,957.08
2016-09-12T15:53:37.460Z,957.04
2016-09-12T15:54:37.452Z,957.03
2016-09-12T15:55:37.457Z,957.02
2016-09-12T15:56:37.470Z,957.03
2016-09-12T15:57:37.464Z,957.02
2016-09-12T15:58:37.469Z,957.05
2016-09-12T15:59:37.481Z,957.08
2016-09-12T16:00:37.478Z,957.05
2016-09-12T16:01:37.482Z,957.02
2016-09-12T16:02:37.489Z,957.03
2016-09-12T16:03:37.490Z,957.05
2016-09-12T16:04:37.497Z,957.03
2016-09-12T16:05:37.498Z,956.98
2016-09-12T16:06:37.509Z,957
2016-09-12T16:07:37.508Z,957.02
2016-09-12T16:08:37.511Z,957
2016-09-12T16:09:37.521Z,957
2016-09-12T16:10:37.524Z,957.03
2016-09-12T16:11:37.527Z,956.96
2016-09-12T16:12:37.528Z,956.99
2016-09-12T16:13:37.531Z,956.98
2016-09-12T16:14:37.535Z,957
2016-09-12T16:15:37.542Z,956.96
2016-09-12T16:16:37.546Z,956.98
2016-09-12T16:17:37.551Z,957
2016-09-12T16:18:37.555Z,957.05
2016-09-12T16:19:37.559Z,957.02
2016-09-12T16:20:37.561Z,957.04
2016-09-12T16:21:37.560Z,956.99
2016-09-12T16:22:37.570Z,957.01
2016-09-12T16:23:37.569Z,956.98
2016-09-12T16:24:37.580Z,956.98
2016-09-12T16:25:37.580Z,956.99
2016-09-12T16:26:37.584Z,956.92
2016-09-12T16:27:37.589Z,956.91
2016-09-12T16:28:37.612Z,956.93
2016-09-12T16:29:37.592Z,956.93
2016-09-12T16:30:37.595Z,956.94
2016-09-12T16:31:37.599Z,956.96
2016-09-12T16:32:37.602Z,956.94
2016-09-12T16:33:37.608Z,956.93
2016-09-12T16:34:37.609Z,956.97
2016-09-12T16:35:37.613Z,956.95
2016-09-12T16:36:37.621Z,956.94
2016-09-12T16:37:37.627Z,956.92
2016-09-12T16:38:37.622Z,956.91
2016-09-12T16:39:37.624Z,956.91
2016-09-12T16:40:37.628Z,956.89
2016-09-12T16:41:37.631Z,956.91
2016-09-12T16:42:37.636Z,956.89
2016-09-12T16:43:37.641Z,956.91
2016-09-12T16:44:37.642Z,956.91
2016-09-12T16:45:37.643Z,956.89
2016-09-12T16:46:37.649Z,956.93
2016-09-12T16:47:37.646Z,956.9
2016-09-12T16:48:37.652Z,956.92
2016-09-12T16:49:37.657Z,956.9
2016-09-12T16:50:37.656Z,956.9
2016-09-12T16:51:37.663Z,956.93
2016-09-12T16:52:37.673Z,956.95
2016-09-12T16:53:37.667Z,956.93
2016-09-12T16:54:37.679Z,956.92
2016-09-12T16:55:37.669Z,956.93
2016-09-12T16:56:37.671Z,956.93
2016-09-12T16:57:37.676Z,956.96
2016-09-12T16:58:37.678Z,956.93
2016-09-12T16:59:37.680Z,956.92
2016-09-12T17:00:37.681Z,956.91
2016-09-12T17:01:37.697Z,956.95
2016-09-12T17:02:37.690Z,956.9
2016-09-12T17:03:37.688Z,956.91
2016-09-12T17:04:37.694Z,956.89
2016-09-12T17:05:37.692Z,956.94
2016-09-12T17:06:37.694Z,956.97
2016-09-12T17:07:37.708Z,956.93
2016-09-12T17:08:37.698Z,956.93
2016-09-12T17:09:37.703Z,956.91
2016-09-12T17:10:37.703Z,956.93
2016-09-12T17:11:37.710Z,956.89
2016-09-12T17:12:37.708Z,956.92
2016-09-12T17:13:37.713Z,956.88
2016-09-12T17:14:37.710Z,956.9
2016-09-12T17:15:37.715Z,956.9
2016-09-12T17:16:37.713Z,956.95
2016-09-12T17:17:37.728Z,956.97
2016-09-12T17:18:37.719Z,956.96
2016-09-12T17:19:37.723Z,956.92
2016-09-12T17:20:37.720Z,956.94
2016-09-12T17:21:37.724Z,956.92
2016-09-12T17:22:37.723Z,956.94
2016-09-12T17:23:37.726Z,956.91
2016-09-12T17:24:37.726Z,956.94
2016-09-12T17:25:37.726Z,956.92
2016-09-12T17:26:37.729Z,956.95
2016-09-12T17:27:37.729Z,956.94
2016-09-12T17:28:37.731Z,956.92
2016-09-12T17:29:37.732Z,956.91
2016-09-12T17:30:37.736Z,956.92
2016-09-12T17:31:37.738Z,956.93
2016-09-12T17:32:37.736Z,956.98
2016-09-12T17:33:37.747Z,956.95
2016-09-12T17:34:37.737Z,956.96
2016-09-12T17:35:37.741Z,957
2016-09-12T17:36:37.740Z,957.01
2016-09-12T17:37:37.739Z,957.05
2016-09-12T17:38:37.740Z,957.05
2016-09-12T17:39:37.744Z,957.03
2016-09-12T17:40:37.742Z,957.04
2016-09-12T17:41:37.743Z,957.02
2016-09-12T17:42:37.745Z,957.04
2016-09-12T17:43:37.745Z,957.07
2016-09-12T17:44:37.745Z,957.08
2016-09-12T17:45:37.748Z,957.12
2016-09-12T17:46:37.746Z,957.15
2016-09-12T17:47:37.751Z,957.14
2016-09-12T17:48:37.758Z,957.15
2016-09-12T17:49:37.751Z,957.17
2016-09-12T17:50:37.756Z,957.15
2016-09-12T17:51:37.761Z,957.19
2016-09-12T17:52:37.749Z,957.17
2016-09-12T17:53:37.756Z,957.19
2016-09-12T17:54:37.748Z,957.2
2016-09-12T17:55:37.750Z,957.21
2016-09-12T17:56:37.750Z,957.22
2016-09-12T17:57:37.750Z,957.2
2016-09-12T17:58:37.754Z,957.23
2016-09-12T17:59:37.749Z,957.24
2016-09-12T18:00:37.753Z,957.3
2016-09-12T18:01:37.751Z,957.24
2016-09-12T18:02:37.753Z,957.3
2016-09-12T18:03:37.756Z,957.31
2016-09-12T18:04:37.754Z,957.3
2016-09-12T18:05:37.757Z,957.27
2016-09-12T18:06:37.752Z,957.28
2016-09-12T18:07:37.751Z,957.29
2016-09-12T18:08:37.753Z,957.28
2016-09-12T18:09:37.748Z,957.33
2016-09-12T18:10:37.750Z,957.34
2016-09-12T18:11:37.748Z,957.35
2016-09-12T18:12:37.753Z,957.31
2016-09-12T18:13:37.748Z,957.31
2016-09-12T18:14:37.752Z,957.31
2016-09-12T18:15:37.746Z,957.29
2016-09-12T18:16:37.759Z,957.32
2016-09-12T18:17:37.754Z,957.33
2016-09-12T18:18:37.797Z,957.28
2016-09-12T18:19:37.748Z,957.29
2016-09-12T18:20:37.746Z,957.32
2016-09-12T18:21:37.750Z,957.28
2016-09-12T18:22:37.755Z,957.3
2016-09-12T18:23:37.748Z,957.31
2016-09-12T18:24:37.745Z,957.33
2016-09-12T18:25:37.751Z,957.33
2016-09-12T18:26:37.747Z,957.31
2016-09-12T18:27:37.748Z,957.32
2016-09-12T18:28:37.743Z,957.31
2016-09-12T18:29:37.740Z,957.31
2016-09-12T18:30:37.755Z,957.35
2016-09-12T18:31:37.758Z,957.34
2016-09-12T18:32:37.753Z,957.36
2016-09-12T18:33:37.751Z,957.35
2016-09-12T18:34:37.737Z,957.37
2016-09-12T18:35:37.739Z,957.39
2016-09-12T18:36:37.738Z,957.36
2016-09-12T18:37:37.736Z,957.37
2016-09-12T18:38:37.734Z,957.37
2016-09-12T18:39:37.736Z,957.38
2016-09-12T18:40:37.744Z,957.39
2016-09-12T18:41:37.735Z,957.38
2016-09-12T18:42:37.734Z,957.37
2016-09-12T18:43:37.733Z,957.37
2016-09-12T18:44:37.737Z,957.39
2016-09-12T18:45:37.735Z,957.39
2016-09-12T18:46:37.794Z,957.36
2016-09-12T18:47:37.728Z,957.38
2016-09-12T18:48:37.727Z,957.44
2016-09-12T18:49:37.725Z,957.44
2016-09-12T18:50:37.722Z,957.41
2016-09-12T18:51:37.722Z,957.41
2016-09-12T18:52:37.722Z,957.42
2016-09-12T18:53:37.723Z,957.39
2016-09-12T18:54:37.740Z,957.37
2016-09-12T18:55:37.726Z,957.41
2016-09-12T18:56:37.724Z,957.4
2016-09-12T18:57:37.732Z,957.43
2016-09-12T18:58:37.716Z,957.41
2016-09-12T18:59:37.717Z,957.46
2016-09-12T19:00:37.712Z,957.44
2016-09-12T19:01:37.720Z,957.46
2016-09-12T19:02:37.710Z,957.45
2016-09-12T19:03:37.720Z,957.46
2016-09-12T19:04:37.708Z,957.51
2016-09-12T19:05:37.707Z,957.46
2016-09-12T19:06:37.711Z,957.48